createdAt,value
2022-12-22T00:02:42.157Z,5.07
2022-12-22T00:05:39.841Z,6.53
2022-12-22T00:08:26.225Z,3.67
2022-12-22T00:11:13.159Z,7.77
2022-12-22T00:14:03.714Z,6.83
2022-12-22T00:16:55.970Z,5.77
2022-12-22T00:19:41.696Z,7.17
2022-12-22T00:22:38.179Z,3.30
2022-12-22T00:25:24.223Z,5.70
2022-12-22T00:28:09.647Z,6.30
2022-12-22T00:30:56.280Z,4.27
2022-12-22T00:33:41.627Z,3.23
2022-12-22T00:36:29.927Z,3.67
2022-12-22T00:39:15.456Z,3.50
2022-12-22T00:42:00.952Z,2.90
2022-12-22T00:44:46.736Z,2.80
2022-12-22T00:47:52.429Z,5.63
2022-12-22T00:50:38.048Z,5.60
2022-12-22T00:53:24.250Z,4.20
2022-12-22T00:56:09.751Z,3.67
2022-12-22T00:58:55.444Z,5.30
2022-12-22T01:01:40.846Z,3.67
2022-12-22T01:04:29.223Z,2.90
2022-12-22T01:07:15.176Z,5.60
2022-12-22T01:10:10.433Z,4.60
2022-12-22T01:13:00.261Z,5.53
2022-12-22T01:15:46.901Z,3.10
2022-12-22T01:18:32.635Z,2.53
2022-12-22T01:21:17.986Z,4.53
2022-12-22T01:24:03.724Z,9.57
2022-12-22T01:26:49.289Z,9.83
2022-12-22T01:29:34.844Z,3.30
2022-12-22T01:32:20.244Z,3.93
2022-12-22T01:35:05.871Z,5.30
2022-12-22T01:37:50.958Z,2.57
2022-12-22T01:40:38.920Z,3.30
2022-12-22T01:43:54.714Z,2.10
2022-12-22T01:46:50.335Z,4.03
2022-12-22T01:50:01.247Z,3.07
2022-12-22T01:52:52.999Z,2.70
2022-12-22T01:55:41.615Z,3.33
2022-12-22T01:58:40.031Z,4.47
2022-12-22T02:01:25.669Z,3.90
2022-12-22T02:04:11.358Z,6.93
2022-12-22T02:07:00.819Z,6.63
2022-12-22T02:09:54.923Z,5.67
2022-12-22T02:12:48.524Z,2.10
2022-12-22T02:15:39.097Z,2.03
2022-12-22T02:18:30.314Z,6.50
2022-12-22T02:21:24.541Z,3.00
2022-12-22T02:24:41.672Z,3.73
2022-12-22T02:27:28.309Z,2.40
2022-12-22T02:30:25.791Z,2.10
2022-12-22T02:33:11.286Z,1.93
2022-12-22T02:36:08.078Z,3.33
2022-12-22T02:39:05.937Z,3.40
2022-12-22T02:41:57.471Z,2.00
2022-12-22T02:45:26.721Z,3.63
2022-12-22T02:48:27.423Z,2.80
2022-12-22T02:51:27.203Z,3.40
2022-12-22T02:54:15.879Z,2.50
2022-12-22T02:57:02.207Z,3.40
2022-12-22T02:59:47.562Z,2.50
2022-12-22T03:02:33.128Z,2.53
2022-12-22T03:05:18.565Z,3.57
2022-12-22T03:08:08.213Z,2.00
2022-12-22T03:10:54.832Z,3.73
2022-12-22T03:13:40.309Z,1.50
2022-12-22T03:16:25.812Z,3.43
2022-12-22T03:19:11.283Z,2.53
2022-12-22T03:21:56.520Z,5.60
2022-12-22T03:24:42.153Z,2.40
2022-12-22T03:27:08.930Z,3.10
2022-12-22T03:29:35.664Z,1.67
2022-12-22T03:32:02.406Z,1.50
2022-12-22T03:34:29.190Z,4.03
2022-12-22T03:36:56.223Z,1.60
2022-12-22T03:39:22.851Z,2.70
2022-12-22T03:42:08.365Z,5.03
2022-12-22T03:44:53.807Z,5.63
2022-12-22T03:47:20.517Z,1.40
2022-12-22T03:49:47.147Z,3.40
2022-12-22T03:52:13.784Z,2.63
2022-12-22T03:54:40.459Z,1.33
2022-12-22T03:57:07.100Z,1.67
2022-12-22T03:59:33.779Z,2.70
2022-12-22T04:02:00.629Z,1.50
2022-12-22T04:04:27.686Z,5.03
2022-12-22T04:06:55.075Z,1.07
2022-12-22T04:09:22.713Z,2.47
2022-12-22T04:12:07.952Z,7.57
2022-12-22T04:14:35.125Z,4.20
2022-12-22T04:17:03.230Z,6.20
2022-12-22T04:19:30.279Z,1.93
2022-12-22T04:21:57.050Z,9.40
2022-12-22T04:24:23.979Z,2.30
2022-12-22T04:26:51.188Z,2.70
2022-12-22T04:29:17.962Z,2.33
2022-12-22T04:31:44.692Z,2.17
2022-12-22T04:34:11.405Z,3.47
2022-12-22T04:36:38.074Z,2.10
2022-12-22T04:39:04.790Z,3.10
2022-12-22T04:41:31.555Z,5.90
2022-12-22T04:43:58.256Z,3.47
2022-12-22T04:46:25.106Z,5.53
2022-12-22T04:48:56.199Z,2.80
2022-12-22T04:51:26.566Z,3.73
2022-12-22T04:53:53.330Z,2.00
2022-12-22T04:56:19.991Z,2.23
2022-12-22T04:58:46.811Z,2.40
2022-12-22T05:01:16.971Z,2.23
2022-12-22T05:03:43.987Z,5.00
2022-12-22T05:06:11.481Z,2.13
2022-12-22T05:08:38.984Z,1.37
2022-12-22T05:11:06.462Z,2.10
2022-12-22T05:13:33.236Z,5.63
2022-12-22T05:16:05.507Z,1.50
2022-12-22T05:18:32.999Z,4.10
2022-12-22T05:21:03.028Z,5.40
2022-12-22T05:23:29.868Z,3.13
2022-12-22T05:25:56.541Z,1.87
2022-12-22T05:28:23.414Z,2.30
2022-12-22T05:30:50.328Z,2.30
2022-12-22T05:33:17.068Z,8.83
2022-12-22T05:35:43.756Z,4.47
2022-12-22T05:38:10.548Z,4.40
2022-12-22T05:40:37.194Z,2.13
2022-12-22T05:43:04.453Z,1.83
2022-12-22T05:45:31.237Z,4.77
2022-12-22T05:47:58.066Z,1.33
2022-12-22T05:50:26.240Z,4.20
2022-12-22T05:52:54.178Z,3.07
2022-12-22T05:55:20.978Z,5.47
2022-12-22T05:57:47.711Z,2.07
2022-12-22T06:00:16.550Z,1.23
2022-12-22T06:02:44.696Z,1.43
2022-12-22T06:05:13.630Z,2.13
2022-12-22T06:07:40.601Z,2.30
2022-12-22T06:10:12.439Z,2.27
2022-12-22T06:12:40.816Z,1.10
2022-12-22T06:15:09.835Z,1.00
2022-12-22T06:17:42.393Z,2.70
2022-12-22T06:20:12.338Z,1.43
2022-12-22T06:22:39.047Z,2.67
2022-12-22T06:25:06.248Z,1.20
2022-12-22T06:27:32.999Z,2.60
2022-12-22T06:29:59.672Z,3.83
2022-12-22T06:32:26.510Z,4.70
2022-12-22T06:34:53.196Z,2.00
2022-12-22T06:37:19.863Z,2.00
2022-12-22T06:39:46.710Z,1.00
2022-12-22T06:42:32.086Z,1.53
2022-12-22T06:44:58.886Z,3.10
2022-12-22T06:47:25.596Z,2.20
2022-12-22T06:49:52.388Z,2.50
2022-12-22T06:52:19.416Z,1.10
2022-12-22T06:54:46.121Z,2.40
2022-12-22T06:57:12.962Z,0.97
2022-12-22T06:59:39.651Z,2.60
2022-12-22T07:02:07.079Z,1.80
2022-12-22T07:04:34.048Z,4.50
2022-12-22T07:07:00.701Z,2.03
2022-12-22T07:09:27.752Z,2.80
2022-12-22T07:11:54.537Z,6.30
2022-12-22T07:14:21.790Z,2.07
2022-12-22T07:16:48.586Z,9.03
2022-12-22T07:19:15.375Z,2.83
2022-12-22T07:21:42.099Z,2.33
2022-12-22T07:24:09.047Z,8.90
2022-12-22T07:26:35.694Z,5.53
2022-12-22T07:29:02.355Z,4.57
2022-12-22T07:31:29.064Z,3.00
2022-12-22T07:33:55.905Z,3.47
2022-12-22T07:36:22.889Z,3.13
2022-12-22T07:38:51.408Z,4.10
2022-12-22T07:41:38.134Z,6.43
2022-12-22T07:44:05.092Z,2.60
2022-12-22T07:46:34.562Z,4.70
2022-12-22T07:49:19.885Z,5.67
2022-12-22T07:51:46.597Z,8.23
2022-12-22T07:54:15.241Z,9.30
2022-12-22T07:56:42.718Z,6.37
2022-12-22T07:59:09.943Z,4.57
2022-12-22T08:01:37.050Z,2.53
2022-12-22T08:04:04.246Z,6.53
2022-12-22T08:06:32.875Z,7.47
2022-12-22T08:08:59.911Z,6.63
2022-12-22T08:11:26.657Z,8.00
2022-12-22T08:13:59.090Z,6.93
2022-12-22T08:16:27.908Z,4.27
2022-12-22T08:18:54.667Z,11.33
2022-12-22T08:21:21.534Z,8.10
2022-12-22T08:23:48.209Z,6.90
2022-12-22T08:26:19.843Z,4.90
2022-12-22T08:29:02.766Z,5.00
2022-12-22T08:31:30.576Z,4.57
2022-12-22T08:34:00.629Z,10.57
2022-12-22T08:36:27.353Z,8.10
2022-12-22T08:38:55.535Z,9.60
2022-12-22T08:41:42.297Z,9.40
2022-12-22T08:44:09.050Z,5.23
2022-12-22T08:46:35.863Z,10.33
2022-12-22T08:49:02.645Z,8.27
2022-12-22T08:51:29.320Z,14.90
2022-12-22T08:54:04.886Z,9.53
2022-12-22T08:56:32.513Z,10.50
2022-12-22T08:58:59.284Z,10.57
2022-12-22T09:01:26.095Z,8.17
2022-12-22T09:03:54.298Z,7.33
2022-12-22T09:06:27.220Z,10.97
2022-12-22T09:08:56.819Z,5.43
2022-12-22T09:11:24.540Z,6.50
2022-12-22T09:13:53.132Z,9.73
2022-12-22T09:16:20.865Z,8.00
2022-12-22T09:18:47.792Z,5.80
2022-12-22T09:21:14.834Z,12.23
2022-12-22T09:23:41.681Z,14.10
2022-12-22T09:26:10.399Z,7.83
2022-12-22T09:28:38.097Z,8.07
2022-12-22T09:31:05.040Z,10.23
2022-12-22T09:33:32.392Z,8.23
2022-12-22T09:35:59.153Z,6.03
2022-12-22T09:38:29.145Z,6.03
2022-12-22T09:40:59.078Z,13.87
2022-12-22T09:43:29.192Z,12.17
2022-12-22T09:45:58.397Z,13.17
2022-12-22T09:48:36.101Z,15.53
2022-12-22T09:51:04.671Z,11.43
2022-12-22T09:53:32.213Z,5.03
2022-12-22T09:55:59.024Z,7.60
2022-12-22T09:58:29.684Z,13.73
2022-12-22T10:01:05.611Z,8.20
2022-12-22T10:03:44.402Z,9.47
2022-12-22T10:06:20.406Z,12.40
2022-12-22T10:08:47.325Z,10.03
2022-12-22T10:11:17.475Z,8.10
2022-12-22T10:13:45.204Z,7.20
2022-12-22T10:16:29.155Z,12.67
2022-12-22T10:19:00.485Z,8.60
2022-12-22T10:21:28.792Z,4.63
2022-12-22T10:23:55.791Z,8.20
2022-12-22T10:26:28.679Z,6.90
2022-12-22T10:29:03.403Z,8.53
2022-12-22T10:31:32.284Z,7.90
2022-12-22T10:34:18.203Z,6.23
2022-12-22T10:36:52.557Z,5.03
2022-12-22T10:39:26.837Z,7.80
2022-12-22T10:42:00.139Z,9.13
2022-12-22T10:44:30.397Z,6.30
2022-12-22T10:46:59.804Z,7.10
2022-12-22T10:49:48.596Z,12.53
2022-12-22T10:52:30.496Z,9.07
2022-12-22T10:55:28.576Z,9.67
2022-12-22T10:58:10.579Z,11.27
2022-12-22T11:00:39.019Z,9.97
2022-12-22T11:03:07.999Z,5.10
2022-12-22T11:05:34.991Z,8.10
2022-12-22T11:08:19.447Z,3.57
2022-12-22T11:10:59.581Z,4.60
2022-12-22T11:13:48.895Z,5.90
2022-12-22T11:16:34.223Z,3.10
2022-12-22T11:19:12.866Z,2.40
2022-12-22T11:22:03.956Z,3.20
2022-12-22T11:25:00.706Z,10.13
2022-12-22T11:27:46.523Z,5.27
2022-12-22T11:30:21.270Z,3.00
2022-12-22T11:33:16.987Z,4.93
2022-12-22T11:35:59.626Z,3.13
2022-12-22T11:38:58.609Z,2.80
2022-12-22T11:41:46.382Z,5.27
2022-12-22T11:44:28.351Z,3.33
2022-12-22T11:47:17.195Z,3.47
2022-12-22T11:50:59.944Z,3.27
2022-12-22T11:52:50.774Z,2.23
2022-12-22T11:55:45.252Z,1.67
2022-12-22T11:58:44.196Z,2.00
2022-12-22T12:01:48.476Z,3.30
2022-12-22T12:04:32.810Z,0.80
2022-12-22T12:07:26.281Z,2.63
2022-12-22T12:09:59.128Z,3.47
2022-12-22T12:13:05.939Z,2.40
2022-12-22T12:15:41.691Z,4.80
2022-12-22T12:18:29.955Z,1.20
2022-12-22T12:20:59.448Z,1.60
2022-12-22T12:23:44.779Z,4.60
2022-12-22T12:26:30.797Z,1.57
2022-12-22T12:29:16.036Z,1.00
2022-12-22T12:31:53.735Z,0.87
2022-12-22T12:34:22.091Z,3.17
2022-12-22T12:37:13.315Z,3.00
2022-12-22T12:40:08.748Z,2.57
2022-12-22T12:42:43.627Z,3.93
2022-12-22T12:45:35.201Z,1.57
2022-12-22T12:48:20.457Z,3.47
2022-12-22T12:50:48.839Z,4.87
2022-12-22T12:53:20.226Z,6.13
2022-12-22T12:55:52.989Z,3.90
2022-12-22T12:58:38.159Z,2.50
2022-12-22T13:01:27.690Z,2.13
2022-12-22T13:04:04.353Z,1.17
2022-12-22T13:06:50.015Z,5.23
2022-12-22T13:12:48.457Z,1.77
2022-12-22T13:15:28.968Z,5.40
2022-12-22T13:17:56.665Z,7.10
2022-12-22T13:20:55.888Z,3.87
2022-12-22T13:23:58.442Z,13.37
2022-12-22T13:26:47.571Z,1.40
2022-12-22T13:29:39.611Z,2.80
2022-12-22T13:32:34.546Z,3.40
2022-12-22T13:35:33.149Z,1.53
2022-12-22T13:38:01.386Z,2.43
2022-12-22T13:40:39.649Z,1.40
2022-12-22T13:43:13.741Z,3.40
2022-12-22T13:45:44.586Z,2.80
2022-12-22T13:48:19.404Z,1.30
2022-12-22T13:50:55.049Z,0.80
2022-12-22T13:56:37.818Z,1.10
2022-12-22T13:59:05.370Z,1.00
2022-12-22T14:01:32.265Z,0.80
2022-12-22T14:04:04.213Z,3.90
2022-12-22T14:06:34.246Z,1.43
2022-12-22T14:09:19.735Z,9.23
2022-12-22T14:11:53.002Z,4.13
2022-12-22T14:14:35.258Z,1.93
2022-12-22T14:17:02.682Z,1.00
2022-12-22T14:19:36.042Z,2.73
2022-12-22T14:22:08.426Z,1.00
2022-12-22T14:24:45.945Z,0.70
2022-12-22T14:27:22.729Z,1.00
2022-12-22T14:29:50.805Z,1.17
2022-12-22T14:32:36.125Z,1.00
2022-12-22T14:35:02.961Z,1.90
2022-12-22T14:37:32.784Z,0.87
2022-12-22T14:40:00.105Z,0.80
2022-12-22T14:42:26.877Z,1.20
2022-12-22T14:44:53.677Z,1.57
2022-12-22T14:47:25.852Z,1.93
2022-12-22T14:50:13.938Z,0.80
2022-12-22T14:52:52.560Z,1.40
2022-12-22T14:55:40.955Z,1.20
2022-12-22T14:58:10.753Z,1.77
2022-12-22T15:00:41.280Z,1.40
2022-12-22T15:03:37.405Z,1.00
2022-12-22T15:06:27.402Z,1.10
2022-12-22T15:09:06.607Z,1.20
2022-12-22T15:11:36.000Z,1.13
2022-12-22T15:14:03.625Z,1.00
2022-12-22T15:16:31.325Z,1.33
2022-12-22T15:18:58.388Z,0.90
2022-12-22T15:21:25.574Z,4.40
2022-12-22T15:23:52.309Z,9.63
2022-12-22T15:26:19.031Z,1.47
2022-12-22T15:28:45.687Z,1.57
2022-12-22T15:31:15.384Z,3.37
2022-12-22T15:33:43.203Z,2.17
2022-12-22T15:36:12.382Z,1.83
2022-12-22T15:38:39.912Z,3.70
2022-12-22T15:41:07.201Z,4.33
2022-12-22T15:46:22.495Z,1.40
2022-12-22T15:48:49.433Z,4.73
2022-12-22T15:51:22.760Z,2.07
2022-12-22T15:53:50.371Z,1.70
2022-12-22T15:56:22.681Z,3.10
2022-12-22T15:58:49.634Z,1.63
2022-12-22T16:01:16.779Z,4.07
2022-12-22T16:03:43.565Z,8.10
2022-12-22T16:06:14.606Z,16.13
2022-12-22T16:08:44.360Z,8.57
2022-12-22T16:11:11.212Z,3.27
2022-12-22T16:13:38.435Z,5.33
2022-12-22T16:16:05.724Z,7.17
2022-12-22T16:18:33.073Z,6.80
2022-12-22T16:21:11.786Z,5.20
2022-12-22T16:23:42.448Z,10.77
2022-12-22T16:26:16.883Z,6.30
2022-12-22T16:28:43.750Z,8.03
2022-12-22T16:31:21.991Z,9.43
2022-12-22T16:33:49.502Z,6.30
2022-12-22T16:36:16.327Z,3.43
2022-12-22T16:38:45.742Z,3.70
2022-12-22T16:41:38.755Z,4.20
2022-12-22T16:44:08.639Z,2.97
2022-12-22T16:46:38.164Z,4.00
2022-12-22T16:49:07.528Z,2.70
2022-12-22T16:51:37.724Z,3.10
2022-12-22T16:54:04.631Z,1.70
2022-12-22T16:56:32.122Z,1.57
2022-12-22T16:59:00.804Z,2.13
2022-12-22T17:01:31.339Z,2.00
2022-12-22T17:04:03.600Z,3.97
2022-12-22T17:06:30.541Z,2.53
2022-12-22T17:08:57.337Z,4.37
2022-12-22T17:11:27.497Z,11.07
2022-12-22T17:14:02.460Z,4.77
2022-12-22T17:16:29.224Z,2.50
2022-12-22T17:18:55.946Z,1.97
2022-12-22T17:21:22.771Z,1.93
2022-12-22T17:23:52.312Z,1.97
2022-12-22T17:26:24.475Z,2.17
2022-12-22T17:28:52.212Z,4.80
2022-12-22T17:31:22.037Z,2.03
2022-12-22T17:33:49.648Z,2.50
2022-12-22T17:36:18.747Z,2.80
2022-12-22T17:38:45.930Z,2.00
2022-12-22T17:41:15.681Z,2.60
2022-12-22T17:43:42.425Z,2.30
2022-12-22T17:46:20.793Z,2.27
2022-12-22T17:48:48.133Z,5.10
2022-12-22T17:51:27.453Z,2.47
2022-12-22T17:53:56.710Z,2.30
2022-12-22T17:56:25.710Z,1.80
2022-12-22T17:58:53.400Z,3.00
2022-12-22T18:01:29.208Z,2.13
2022-12-22T18:03:57.132Z,2.50
2022-12-22T18:06:31.371Z,2.47
2022-12-22T18:08:58.754Z,3.17
2022-12-22T18:11:26.210Z,9.90
2022-12-22T18:13:53.869Z,10.83
2022-12-22T18:16:21.521Z,9.20
2022-12-22T18:18:48.711Z,11.80
2022-12-22T18:21:19.363Z,47.73
2022-12-22T18:23:50.462Z,13.00
2022-12-22T18:26:22.833Z,4.60
2022-12-22T18:28:50.250Z,5.80
2022-12-22T18:31:17.878Z,5.40
2022-12-22T18:33:44.706Z,9.03
2022-12-22T18:36:32.635Z,6.17
2022-12-22T18:39:01.378Z,7.30
2022-12-22T18:41:32.016Z,10.07
2022-12-22T18:43:58.755Z,8.20
2022-12-22T18:46:25.604Z,12.60
2022-12-22T18:48:52.563Z,7.70
2022-12-22T18:51:25.269Z,8.27
2022-12-22T18:53:53.573Z,12.50
2022-12-22T18:56:20.332Z,8.87
2022-12-22T18:58:47.324Z,9.23
2022-12-22T19:01:26.426Z,8.97
2022-12-22T19:03:55.978Z,10.13
2022-12-22T19:06:23.909Z,10.80
2022-12-22T19:08:51.237Z,8.93
2022-12-22T19:11:25.209Z,12.93
2022-12-22T19:13:52.454Z,10.57
2022-12-22T19:16:25.002Z,14.07
2022-12-22T19:18:52.020Z,20.80
2022-12-22T19:21:19.608Z,42.23
2022-12-22T19:23:46.363Z,31.90
2022-12-22T19:26:27.084Z,18.67
2022-12-22T19:28:57.135Z,26.13
2022-12-22T19:31:27.029Z,37.63
2022-12-22T19:33:55.129Z,35.50
2022-12-22T19:36:28.118Z,19.63
2022-12-22T19:39:03.188Z,30.03
2022-12-22T19:41:34.063Z,29.33
2022-12-22T19:44:01.170Z,34.30
2022-12-22T19:46:32.323Z,30.23
2022-12-22T19:48:59.191Z,35.63
2022-12-22T19:51:25.963Z,33.63
2022-12-22T19:53:52.721Z,40.60
2022-12-22T19:56:26.392Z,49.43
2022-12-22T19:58:54.496Z,33.80
2022-12-22T20:01:21.371Z,32.50
2022-12-22T20:03:48.142Z,39.97
2022-12-22T20:06:15.011Z,32.97
2022-12-22T20:08:41.644Z,48.27
2022-12-22T20:11:16.478Z,30.33
2022-12-22T20:13:43.847Z,39.57
2022-12-22T20:16:13.351Z,39.03
2022-12-22T20:18:40.648Z,32.37
2022-12-22T20:21:12.471Z,37.43
2022-12-22T20:23:40.208Z,36.00
2022-12-22T20:26:13.453Z,29.83
2022-12-22T20:28:40.476Z,27.37
2022-12-22T20:31:10.959Z,28.10
2022-12-22T20:33:37.793Z,33.93
2022-12-22T20:36:21.817Z,32.37
2022-12-22T20:38:49.899Z,30.83
2022-12-22T20:41:16.583Z,33.77
2022-12-22T20:43:43.235Z,38.37
2022-12-22T20:46:23.826Z,27.07
2022-12-22T20:48:56.230Z,34.20
2022-12-22T20:51:25.165Z,22.50
2022-12-22T20:53:52.978Z,38.17
2022-12-22T20:56:37.786Z,31.43
2022-12-22T20:59:12.555Z,35.30
2022-12-22T21:01:39.303Z,19.20
2022-12-22T21:04:06.156Z,22.40
2022-12-22T21:06:42.674Z,19.10
2022-12-22T21:09:12.351Z,27.97
2022-12-22T21:11:39.015Z,28.90
2022-12-22T21:14:05.657Z,28.97
2022-12-22T21:16:34.174Z,18.27
2022-12-22T21:19:01.103Z,24.97
2022-12-22T21:21:27.915Z,19.97
2022-12-22T21:23:54.563Z,17.07
2022-12-22T21:26:23.153Z,18.27
2022-12-22T21:28:50.417Z,27.07
2022-12-22T21:31:17.271Z,36.07
2022-12-22T21:33:44.027Z,26.70
2022-12-22T21:36:24.753Z,23.80
2022-12-22T21:38:58.453Z,28.03
2022-12-22T21:41:45.231Z,28.83
2022-12-22T21:44:13.463Z,19.83
2022-12-22T21:46:45.273Z,13.27
2022-12-22T21:49:19.987Z,20.33
2022-12-22T21:51:47.736Z,21.97
2022-12-22T21:54:14.711Z,17.43
2022-12-22T21:56:41.369Z,25.37
2022-12-22T21:59:08.083Z,19.90
2022-12-22T22:01:34.874Z,16.53
2022-12-22T22:04:01.743Z,21.03
2022-12-22T22:06:28.673Z,20.80
2022-12-22T22:08:55.388Z,24.90
2022-12-22T22:11:24.449Z,20.50
2022-12-22T22:13:51.723Z,18.90
2022-12-22T22:16:19.355Z,17.80
2022-12-22T22:18:47.584Z,18.70
2022-12-22T22:21:16.294Z,23.30
2022-12-22T22:23:44.000Z,17.27
2022-12-22T22:26:11.363Z,13.13
2022-12-22T22:28:38.211Z,20.73
2022-12-22T22:31:11.718Z,13.20
2022-12-22T22:33:38.454Z,16.30
2022-12-22T22:36:07.109Z,12.70
2022-12-22T22:38:34.059Z,18.67
2022-12-22T22:41:00.964Z,16.50
2022-12-22T22:43:27.606Z,8.87
2022-12-22T22:45:54.551Z,10.27
2022-12-22T22:48:22.821Z,13.07
2022-12-22T22:50:50.155Z,14.00
2022-12-22T22:53:16.943Z,15.77
2022-12-22T22:55:43.721Z,10.77
2022-12-22T22:58:11.560Z,8.53
2022-12-22T23:00:39.239Z,14.17
2022-12-22T23:03:06.373Z,9.30
2022-12-22T23:05:33.452Z,11.30
2022-12-22T23:08:00.181Z,11.57
2022-12-22T23:10:26.952Z,11.23
2022-12-22T23:12:54.441Z,8.10
2022-12-22T23:15:21.121Z,11.50
2022-12-22T23:17:47.788Z,9.33
2022-12-22T23:20:14.457Z,14.03
2022-12-22T23:22:41.140Z,12.60
2022-12-22T23:25:08.406Z,6.90
2022-12-22T23:27:35.132Z,6.00
2022-12-22T23:30:01.853Z,11.20
2022-12-22T23:32:28.583Z,7.47
2022-12-22T23:34:55.319Z,5.93
2022-12-22T23:37:21.939Z,8.87
2022-12-22T23:39:48.793Z,8.63
2022-12-22T23:42:15.453Z,7.07
2022-12-22T23:44:42.114Z,5.67
2022-12-22T23:47:09.128Z,8.33
2022-12-22T23:49:35.851Z,5.83
2022-12-22T23:52:02.585Z,14.10
2022-12-22T23:54:30.406Z,4.03
2022-12-22T23:56:57.168Z,9.83
2022-12-22T23:59:23.863Z,5.83
